Time;durP1;ratioP1;P1;durP2;ratioP2;P2;SDS_P1;SDS_P2;PMS_P1;PMS_P2;Temp;Humidity;BMP_temperature;BMP_pressure;BME280_temperature;BME280_humidity;BME280_pressure;Samples;Min_cycle;Max_cycle;Signal;HPM_P1;HPM_P2
2021/01/04 00:00:15;;;;;;;24.50;15.35;;;;;;;7.43;70.45;94667.38;4188752;28;19924;-69
2021/01/04 00:02:55;;;;;;;20.63;15.07;;;;;;;7.38;70.90;94665.19;4196082;28;20106;-69
2021/01/04 00:05:17;;;;;;;23.63;15.88;;;;;;;7.41;70.72;94674.50;4182281;28;20592;-70
2021/01/04 00:07:45;;;;;;;22.30;14.73;;;;;;;7.47;70.79;94673.13;4193162;28;20049;-70
2021/01/04 00:09:59;;;;;;;20.17;14.32;;;;;;;7.46;70.72;94671.47;4192314;28;20045;-69
2021/01/04 00:12:17;;;;;;;23.20;15.63;;;;;;;7.32;71.16;94668.34;4192658;28;20106;-70
2021/01/04 00:14:35;;;;;;;24.95;15.23;;;;;;;7.19;71.87;94680.84;4193391;28;20053;-69
2021/01/04 00:17:01;;;;;;;26.50;17.50;;;;;;;7.10;72.26;94685.13;4194215;28;20052;-70
2021/01/04 00:19:13;;;;;;;23.67;15.93;;;;;;;7.15;72.18;94679.47;4194540;28;20101;-70
2021/01/04 00:21:36;;;;;;;24.27;15.00;;;;;;;7.19;72.33;94675.63;4193798;28;20555;-71
2021/01/04 00:23:43;;;;;;;21.60;14.90;;;;;;;7.21;72.28;94673.72;4180651;28;20051;-70
2021/01/04 00:25:59;;;;;;;28.35;18.40;;;;;;;7.06;72.97;94664.69;4194131;28;20121;-69
2021/01/04 00:28:09;;;;;;;26.48;18.30;;;;;;;7.02;72.89;94660.72;4192688;28;20056;-72
2021/01/04 00:30:26;;;;;;;28.58;18.17;;;;;;;7.02;73.01;94668.53;4192788;28;20053;-70
2021/01/04 00:32:33;;;;;;;29.85;18.98;;;;;;;6.85;73.87;94660.44;4192045;28;20406;-69
2021/01/04 00:34:45;;;;;;;27.50;18.73;;;;;;;6.94;73.57;94659.59;4210714;28;20071;-69
2021/01/04 00:37:23;;;;;;;28.67;18.63;;;;;;;7.02;72.88;94658.94;4192595;28;20052;-69
2021/01/04 00:40:09;;;;;;;26.88;17.33;;;;;;;7.12;72.70;94653.69;4192336;28;20473;-72
2021/01/04 00:42:13;;;;;;;29.75;19.95;;;;;;;7.15;72.40;94654.25;4205767;28;20137;-70
2021/01/04 00:44:21;;;;;;;30.33;20.42;;;;;;;7.20;72.17;94645.19;4193250;28;20056;-71
2021/01/04 00:46:41;;;;;;;32.95;21.42;;;;;;;7.21;72.06;94646.84;4210042;28;20059;-71
2021/01/04 00:49:09;;;;;;;30.42;20.08;;;;;;;7.08;72.41;94647.94;4206357;28;20052;-69
2021/01/04 00:51:32;;;;;;;29.05;20.45;;;;;;;6.45;74.36;94644.91;4183986;28;20048;-69
2021/01/04 00:53:50;;;;;;;30.40;20.73;;;;;;;6.56;74.28;94642.22;4185204;28;20422;-70
2021/01/04 00:56:16;;;;;;;32.97;21.15;;;;;;;6.65;74.17;94643.19;4177025;28;20512;-68
2021/01/04 00:58:26;;;;;;;30.02;21.83;;;;;;;6.61;74.46;94639.19;4191165;28;20126;-70
2021/01/04 01:00:32;;;;;;;29.33;19.83;;;;;;;6.48;74.56;94647.28;4193007;28;20045;-70
2021/01/04 01:02:48;;;;;;;28.73;19.25;;;;;;;6.57;74.35;94651.66;4192283;28;20063;-70
2021/01/04 01:05:38;;;;;;;28.85;18.23;;;;;;;6.74;73.83;94644.97;4194398;28;20049;-69
2021/01/04 01:08:03;;;;;;;26.77;18.83;;;;;;;6.84;73.69;94643.19;4189309;28;20052;-69
2021/01/04 01:10:08;;;;;;;26.13;17.67;;;;;;;6.90;73.30;94634.78;4194344;28;20044;-69
2021/01/04 01:12:18;;;;;;;25.83;18.17;;;;;;;6.98;73.17;94640.13;4206686;28;20172;-69
2021/01/04 01:14:25;;;;;;;26.15;18.33;;;;;;;7.03;72.97;94637.09;4193919;28;20056;-69
2021/01/04 01:16:27;;;;;;;29.05;19.27;;;;;;;7.04;72.70;94638.78;4192980;28;20078;-69
2021/01/04 01:18:33;;;;;;;30.15;20.63;;;;;;;6.85;73.36;94631.78;4193772;28;20466;-69
2021/01/04 01:20:40;;;;;;;29.65;20.90;;;;;;;6.66;74.48;94632.59;4192505;28;20052;-69
2021/01/04 01:22:42;;;;;;;34.60;21.17;;;;;;;6.66;74.26;94630.00;4191679;28;20055;-70
2021/01/04 01:24:43;;;;;;;28.38;19.67;;;;;;;6.73;74.23;94628.53;4193008;28;20048;-69
2021/01/04 01:27:03;;;;;;;29.92;19.33;;;;;;;6.80;74.03;94614.94;4191974;28;20574;-67
2021/01/04 01:29:17;;;;;;;28.05;19.67;;;;;;;6.85;73.93;94612.75;4193317;28;20525;-69
2021/01/04 01:31:36;;;;;;;26.13;19.53;;;;;;;6.91;73.99;94609.59;4193287;28;20064;-69
2021/01/04 01:34:17;;;;;;;28.40;19.45;;;;;;;6.92;73.54;94617.25;4185222;28;20446;-80
2021/01/04 01:37:06;;;;;;;28.42;19.60;;;;;;;6.95;73.90;94621.38;4176039;28;20118;-81
2021/01/04 01:39:40;;;;;;;27.60;18.55;;;;;;;6.94;74.06;94630.94;4162681;28;20049;-81
2021/01/04 01:42:19;;;;;;;27.23;18.13;;;;;;;6.96;73.71;94610.00;4187678;28;20044;-80
2021/01/04 01:44:28;;;;;;;23.40;16.75;;;;;;;6.96;73.75;94617.81;4195490;28;20060;-80
2021/01/04 01:46:35;;;;;;;23.00;16.33;;;;;;;7.00;74.00;94613.16;4195360;28;20082;-79
2021/01/04 01:48:45;;;;;;;23.23;16.25;;;;;;;6.94;74.22;94612.72;4194845;28;20470;-80
2021/01/04 01:50:59;;;;;;;23.98;15.60;;;;;;;6.91;74.33;94620.00;4191333;28;20513;-81
2021/01/04 01:53:18;;;;;;;27.35;16.30;;;;;;;6.85;74.69;94623.97;4192628;28;20040;-80
2021/01/04 01:55:59;;;;;;;22.77;15.15;;;;;;;6.83;74.99;94620.69;4195758;28;20051;-80
2021/01/04 01:58:03;;;;;;;23.02;15.07;;;;;;;6.78;75.51;94637.69;4192438;28;20053;-80
2021/01/04 02:00:16;;;;;;;22.05;14.68;;;;;;;6.79;75.84;94647.97;4193960;28;20052;-79
2021/01/04 02:02:26;;;;;;;20.73;13.57;;;;;;;6.73;75.64;94643.28;4193517;28;20048;-81
2021/01/04 02:04:49;;;;;;;18.63;13.75;;;;;;;6.73;76.08;94651.09;4193115;28;20052;-79
2021/01/04 02:07:10;;;;;;;18.58;13.43;;;;;;;6.82;75.51;94658.13;4187332;28;20111;-80
2021/01/04 02:09:15;;;;;;;18.52;12.32;;;;;;;6.85;75.80;94655.22;4194465;28;20052;-81
2021/01/04 02:11:29;;;;;;;16.75;12.05;;;;;;;6.79;75.58;94639.34;4193130;28;20045;-81
2021/01/04 02:13:41;;;;;;;20.23;13.40;;;;;;;6.70;76.44;94633.97;4192147;28;20056;-80
2021/01/04 02:15:53;;;;;;;19.58;13.50;;;;;;;6.79;75.92;94632.34;4193293;28;20049;-80
2021/01/04 02:18:13;;;;;;;16.73;12.45;;;;;;;6.76;76.36;94630.03;4187451;28;20052;-81
2021/01/04 02:20:52;;;;;;;19.35;12.75;;;;;;;6.57;77.64;94623.84;4193223;28;20105;-79
2021/01/04 02:23:10;;;;;;;19.02;12.82;;;;;;;6.66;77.41;94618.78;4193458;28;20049;-79
2021/01/04 02:25:11;;;;;;;17.25;12.85;;;;;;;6.52;78.54;94610.44;4194861;28;20048;-79
2021/01/04 02:27:21;;;;;;;17.60;12.63;;;;;;;6.61;78.03;94603.56;4193059;28;20076;-81
2021/01/04 02:29:23;;;;;;;18.45;12.75;;;;;;;6.67;78.06;94604.81;4187444;28;20546;-79
2021/01/04 02:31:47;;;;;;;17.50;12.18;;;;;;;6.73;77.66;94604.25;4193468;28;20056;-81
2021/01/04 02:33:48;;;;;;;17.08;10.70;;;;;;;6.86;77.67;94622.19;4186037;28;20048;-81
2021/01/04 02:35:50;;;;;;;14.57;10.93;;;;;;;6.96;77.31;94603.00;4193555;28;20106;-80
2021/01/04 02:37:52;;;;;;;16.80;11.68;;;;;;;6.90;77.92;94581.91;4193831;28;20055;-78
2021/01/04 02:40:00;;;;;;;15.07;11.18;;;;;;;6.93;77.70;94594.66;4195068;28;20079;-80
2021/01/04 02:42:07;;;;;;;14.77;9.65;;;;;;;7.04;77.54;94599.69;4194375;28;20438;-81
2021/01/04 02:44:09;;;;;;;15.52;11.18;;;;;;;7.12;77.40;94588.56;4193093;28;20061;-78
2021/01/04 02:46:16;;;;;;;15.73;10.48;;;;;;;7.20;76.99;94585.25;4180592;28;20052;-80
2021/01/04 02:48:55;;;;;;;16.98;11.18;;;;;;;7.30;76.77;94580.84;4188279;28;20061;-81
2021/01/04 02:51:05;;;;;;;13.88;10.30;;;;;;;7.15;76.65;94575.28;4180568;28;20161;-79
2021/01/04 02:53:16;;;;;;;15.13;9.55;;;;;;;7.11;77.05;94585.16;4193033;28;20060;-78
2021/01/04 02:55:56;;;;;;;13.23;9.20;;;;;;;6.85;78.22;94584.91;4194252;28;20056;-80
2021/01/04 02:58:18;;;;;;;13.98;9.75;;;;;;;6.85;78.32;94589.31;4191944;28;20056;-81
2021/01/04 03:00:22;;;;;;;13.50;8.80;;;;;;;6.92;78.15;94603.41;4189584;28;20048;-81
2021/01/04 03:02:38;;;;;;;14.95;9.60;;;;;;;7.02;78.13;94603.41;4176184;28;20203;-79
2021/01/04 03:04:39;;;;;;;14.93;11.05;;;;;;;7.09;77.83;94596.66;4192630;28;20239;-79
2021/01/04 03:06:53;;;;;;;15.65;11.63;;;;;;;7.18;77.15;94607.09;4190300;28;20068;-80
2021/01/04 03:08:54;;;;;;;18.13;12.60;;;;;;;7.22;76.79;94602.41;4192432;28;20131;-80
2021/01/04 03:10:55;;;;;;;16.98;11.73;;;;;;;7.30;77.01;94597.31;4192007;28;20044;-79
2021/01/04 03:13:05;;;;;;;15.05;10.88;;;;;;;7.34;76.74;94597.84;4193320;28;20049;-82
2021/01/04 03:15:22;;;;;;;16.73;11.88;;;;;;;7.23;77.32;94595.41;4193322;28;20062;-80
2021/01/04 03:17:52;;;;;;;16.48;12.30;;;;;;;7.09;77.65;94599.28;4193646;28;20055;-81
2021/01/04 03:19:57;;;;;;;14.50;10.85;;;;;;;7.05;77.99;94600.50;4186380;28;20059;-81
2021/01/04 03:22:03;;;;;;;18.65;12.73;;;;;;;7.14;78.01;94599.66;4195486;28;20040;-79
2021/01/04 03:24:16;;;;;;;17.23;12.30;;;;;;;7.16;77.57;94587.31;4182500;28;20052;-81
2021/01/04 03:26:27;;;;;;;18.23;12.20;;;;;;;7.20;77.59;94588.69;4187699;28;20087;-78
2021/01/04 03:28:30;;;;;;;17.83;11.50;;;;;;;7.29;77.49;94577.44;4193815;28;20056;-80
2021/01/04 03:30:32;;;;;;;15.18;11.60;;;;;;;7.30;77.75;94568.66;4193970;28;20481;-80
2021/01/04 03:32:33;;;;;;;15.98;11.02;;;;;;;7.34;77.18;94562.19;4192145;28;20132;-78
2021/01/04 03:34:34;;;;;;;18.35;11.98;;;;;;;7.33;77.60;94551.91;4193371;28;20426;-80
2021/01/04 03:36:35;;;;;;;17.48;11.65;;;;;;;7.26;77.59;94538.63;4187108;28;20262;-78
2021/01/04 03:38:37;;;;;;;20.23;13.70;;;;;;;6.87;79.21;94530.91;4194198;28;20055;-79
2021/01/04 03:40:39;;;;;;;18.02;12.95;;;;;;;6.88;79.62;94535.19;4194026;28;20451;-79
2021/01/04 03:42:40;;;;;;;18.60;13.18;;;;;;;6.92;79.03;94536.53;4194053;28;20044;-80
2021/01/04 03:44:42;;;;;;;17.63;13.20;;;;;;;6.98;78.97;94537.75;4194775;28;20052;-79
2021/01/04 03:46:45;;;;;;;19.05;13.30;;;;;;;7.08;79.01;94542.94;4168483;28;20109;-80
2021/01/04 03:48:46;;;;;;;22.40;12.73;;;;;;;7.15;78.85;94538.81;4194211;28;20431;-80
2021/01/04 03:50:51;;;;;;;16.30;11.95;;;;;;;7.21;78.13;94543.44;4194916;28;20072;-79
2021/01/04 03:52:52;;;;;;;16.45;11.85;;;;;;;7.30;77.94;94547.81;4178541;28;20045;-82
2021/01/04 03:54:53;;;;;;;16.77;12.30;;;;;;;7.36;77.59;94542.00;4196305;28;20106;-77
2021/01/04 03:56:55;;;;;;;19.65;13.35;;;;;;;7.39;77.52;94530.47;4195890;28;20044;-81
2021/01/04 03:58:56;;;;;;;18.30;13.13;;;;;;;7.44;77.77;94527.44;4195954;28;20052;-77
2021/01/04 04:00:57;;;;;;;19.92;13.05;;;;;;;7.43;77.34;94528.41;4196331;28;20538;-80
2021/01/04 04:02:58;;;;;;;18.50;12.90;;;;;;;7.42;77.50;94518.94;4194604;28;20049;-80
2021/01/04 04:05:00;;;;;;;18.65;13.35;;;;;;;7.46;77.45;94525.50;4195798;28;20040;-79
2021/01/04 04:07:01;;;;;;;18.42;12.85;;;;;;;7.50;77.52;94525.06;4193900;28;20052;-81
2021/01/04 04:09:02;;;;;;;16.65;12.40;;;;;;;7.49;76.99;94526.06;4187164;28;20500;-81
2021/01/04 04:11:03;;;;;;;17.10;12.80;;;;;;;7.52;77.07;94510.09;4197091;28;20114;-80
2021/01/04 04:13:05;;;;;;;17.65;12.80;;;;;;;7.52;77.39;94504.09;4192944;28;20047;-81
2021/01/04 04:15:09;;;;;;;18.13;12.80;;;;;;;7.49;77.09;94507.81;4192989;28;20049;-78
2021/01/04 04:17:10;;;;;;;18.83;13.27;;;;;;;7.49;77.09;94493.97;4193840;28;20048;-78
2021/01/04 04:19:13;;;;;;;18.05;12.90;;;;;;;7.51;77.08;94490.25;4195976;28;20102;-79
2021/01/04 04:21:15;;;;;;;19.25;12.93;;;;;;;7.53;76.94;94475.28;4193895;28;20098;-69
2021/01/04 04:23:16;;;;;;;16.95;13.18;;;;;;;7.56;77.08;94479.38;4192773;28;20048;-70
2021/01/04 04:25:19;;;;;;;17.33;12.63;;;;;;;7.55;77.14;94472.50;4209591;28;20055;-69
2021/01/04 04:27:20;;;;;;;16.77;12.82;;;;;;;7.56;76.93;94479.38;4203687;28;20537;-69
2021/01/04 04:29:21;;;;;;;17.77;12.40;;;;;;;7.57;76.91;94487.06;4193227;28;20052;-68
2021/01/04 04:31:23;;;;;;;21.23;14.48;;;;;;;7.59;76.87;94497.31;4193055;28;20186;-69
2021/01/04 04:33:24;;;;;;;19.58;13.65;;;;;;;7.59;76.95;94500.75;4175455;28;20060;-69
2021/01/04 04:35:26;;;;;;;22.77;16.35;;;;;;;7.62;76.66;94497.03;4193406;28;20060;-67
2021/01/04 04:37:27;;;;;;;22.25;15.05;;;;;;;7.64;77.11;94497.72;4192416;28;20056;-69
2021/01/04 04:39:29;;;;;;;21.98;14.65;;;;;;;7.61;77.47;94490.16;4191804;28;20103;-69
2021/01/04 04:41:44;;;;;;;20.13;14.77;;;;;;;7.66;77.17;94482.75;4193562;28;20049;-70
2021/01/04 04:43:46;;;;;;;23.25;16.00;;;;;;;7.68;77.48;94482.59;4190561;28;20055;-69
2021/01/04 04:45:49;;;;;;;28.63;15.07;;;;;;;7.64;77.53;94482.06;4191973;28;20056;-69
2021/01/04 04:48:23;;;;;;;21.45;14.95;;;;;;;7.62;77.61;94483.19;4192796;28;20140;-70
2021/01/04 04:50:38;;;;;;;92.78;59.22;;;;;;;7.61;77.48;94482.34;4193030;28;20431;-69
2021/01/04 04:52:55;;;;;;;42.42;28.45;;;;;;;7.62;77.03;94481.41;4190835;28;20056;-70
2021/01/04 04:55:13;;;;;;;70.07;47.90;;;;;;;7.57;77.30;94488.81;4184362;28;20059;-69
2021/01/04 04:57:30;;;;;;;55.15;36.35;;;;;;;7.58;77.90;94487.88;4193609;28;20060;-68
2021/01/04 04:59:56;;;;;;;25.63;18.13;;;;;;;7.58;77.50;94482.66;4189227;28;20053;-69
2021/01/04 05:02:00;;;;;;;27.55;19.15;;;;;;;7.54;77.73;94481.31;4180932;28;20051;-68
2021/01/04 05:04:08;;;;;;;22.90;16.17;;;;;;;7.55;77.67;94468.13;4189219;28;20056;-70
2021/01/04 05:06:31;;;;;;;23.27;17.48;;;;;;;7.61;77.57;94479.75;4193168;28;20052;-69
2021/01/04 05:08:51;;;;;;;22.77;16.20;;;;;;;7.59;77.26;94474.69;4178276;28;20542;-70
2021/01/04 05:10:53;;;;;;;32.03;21.15;;;;;;;7.62;77.68;94478.78;4181756;28;20135;-69
2021/01/04 05:12:59;;;;;;;60.60;39.55;;;;;;;7.66;77.51;94487.13;4188728;28;20054;-68
2021/01/04 05:15:04;;;;;;;28.30;19.02;;;;;;;7.67;77.56;94476.56;4189256;28;20148;-68
2021/01/04 05:17:17;;;;;;;22.60;17.08;;;;;;;7.63;77.82;94471.78;4185839;28;20053;-69
2021/01/04 05:19:45;;;;;;;23.65;15.93;;;;;;;7.63;77.68;94474.38;4187221;28;20066;-69
2021/01/04 05:22:00;;;;;;;23.60;16.70;;;;;;;7.61;77.47;94471.09;4169908;28;20080;-68
2021/01/04 05:24:39;;;;;;;22.65;17.25;;;;;;;7.58;77.91;94456.59;4188360;28;20049;-69
2021/01/04 05:27:04;;;;;;;22.73;16.10;;;;;;;7.51;78.00;94451.13;4190008;28;20052;-68
2021/01/04 05:29:27;;;;;;;27.40;17.50;;;;;;;7.49;78.05;94447.03;4181597;28;20472;-69
2021/01/04 05:31:34;;;;;;;24.38;17.30;;;;;;;7.49;78.14;94440.03;4192691;28;20105;-70
2021/01/04 05:34:00;;;;;;;23.67;16.55;;;;;;;7.52;77.97;94429.31;4193382;28;20048;-70
2021/01/04 05:36:52;;;;;;;26.23;17.90;;;;;;;7.51;78.11;94432.91;4160345;28;20118;-69
2021/01/04 05:39:25;;;;;;;25.83;17.85;;;;;;;7.46;78.86;94426.47;4176745;28;20143;-69
2021/01/04 05:41:53;;;;;;;30.02;19.98;;;;;;;7.30;79.56;94430.53;4192997;28;20059;-69
2021/01/04 05:44:18;;;;;;;28.85;20.17;;;;;;;7.11;80.37;94418.44;4190223;28;20052;-70
2021/01/04 05:46:32;;;;;;;27.45;18.17;;;;;;;7.13;80.26;94413.91;4193271;28;20396;-68
2021/01/04 05:48:57;;;;;;;24.33;17.88;;;;;;;7.19;80.38;94417.72;4192440;28;20098;-72
2021/01/04 05:51:12;;;;;;;25.30;17.83;;;;;;;7.18;80.70;94406.47;4191036;28;20044;-69
2021/01/04 05:53:13;;;;;;;23.52;16.83;;;;;;;7.23;80.56;94408.66;4191506;28;20046;-71
2021/01/04 05:55:15;;;;;;;22.00;17.42;;;;;;;7.28;80.23;94414.22;4193044;28;20053;-69
2021/01/04 05:57:17;;;;;;;21.02;15.85;;;;;;;7.33;80.02;94412.00;4188967;28;20059;-80
2021/01/04 05:59:19;;;;;;;24.33;17.08;;;;;;;7.40;79.50;94412.25;4193611;28;20049;-80
2021/01/04 06:01:26;;;;;;;25.05;15.32;;;;;;;7.44;79.20;94412.75;4210307;28;20054;-81
2021/01/04 06:03:27;;;;;;;21.60;14.73;;;;;;;7.42;79.74;94410.31;4210929;28;20040;-80
2021/01/04 06:05:29;;;;;;;23.50;14.48;;;;;;;7.37;79.59;94407.31;4186959;28;20059;-80
2021/01/04 06:07:34;;;;;;;19.75;13.50;;;;;;;7.33;79.88;94409.38;4215688;28;20372;-78
2021/01/04 06:09:35;;;;;;;20.75;15.23;;;;;;;7.33;79.78;94419.81;4198972;28;20060;-81
2021/01/04 06:11:56;;;;;;;21.55;14.13;;;;;;;7.31;79.82;94413.97;4210075;28;20109;-80
2021/01/04 06:14:03;;;;;;;19.50;14.48;;;;;;;7.19;80.31;94409.91;4193385;28;20080;-80
2021/01/04 06:16:25;;;;;;;20.60;13.98;;;;;;;7.07;81.00;94413.66;4178543;28;20136;-79
2021/01/04 06:18:27;;;;;;;20.70;13.25;;;;;;;7.08;81.06;94415.31;4192243;28;20056;-81
2021/01/04 06:20:44;;;;;;;19.80;14.00;;;;;;;7.09;81.43;94420.34;4196440;28;20667;-79
2021/01/04 06:22:45;;;;;;;17.35;13.00;;;;;;;7.06;81.47;94407.63;4187699;28;20499;-82
2021/01/04 06:25:01;;;;;;;20.58;14.48;;;;;;;6.97;82.35;94406.72;4192248;28;20051;-70
2021/01/04 06:27:09;;;;;;;21.50;14.75;;;;;;;6.85;82.67;94397.44;4188106;28;20048;-69
2021/01/04 06:29:10;;;;;;;20.63;14.15;;;;;;;6.65;83.82;94388.91;4185663;28;20514;-69
2021/01/04 06:31:14;;;;;;;19.27;13.48;;;;;;;6.63;84.15;94384.81;4191486;28;20516;-70
2021/01/04 06:33:19;;;;;;;18.90;12.63;;;;;;;6.59;84.10;94386.84;4174718;28;20483;-70
2021/01/04 06:35:29;;;;;;;19.13;12.48;;;;;;;6.67;84.21;94383.56;4187772;28;20431;-70
2021/01/04 06:37:33;;;;;;;16.73;11.70;;;;;;;6.74;83.88;94377.63;4182661;28;20044;-70
2021/01/04 06:39:36;;;;;;;15.88;11.25;;;;;;;6.82;83.75;94381.28;4187874;28;20110;-69
2021/01/04 06:41:38;;;;;;;15.50;11.20;;;;;;;6.74;83.46;94382.00;4191918;28;20060;-70
2021/01/04 06:43:40;;;;;;;13.32;10.07;;;;;;;6.77;83.73;94379.09;4207445;28;20566;-69
2021/01/04 06:45:49;;;;;;;14.15;10.27;;;;;;;6.73;84.34;94369.94;4190644;28;20131;-71
2021/01/04 06:48:05;;;;;;;14.65;10.90;;;;;;;6.68;84.18;94366.97;4193189;28;20127;-70
2021/01/04 06:50:32;;;;;;;16.02;10.80;;;;;;;6.69;84.18;94369.44;4192465;28;20049;-69
2021/01/04 06:53:11;;;;;;;18.98;11.85;;;;;;;6.77;84.48;94371.31;4189922;28;20450;-70
2021/01/04 06:55:21;;;;;;;17.20;12.23;;;;;;;6.76;84.21;94367.88;4176437;28;20423;-71
2021/01/04 06:58:00;;;;;;;17.30;12.70;;;;;;;6.75;84.37;94363.66;4192190;28;20059;-71
2021/01/04 07:00:24;;;;;;;20.30;13.25;;;;;;;6.80;84.25;94367.59;4173951;28;20098;-70
2021/01/04 07:02:34;;;;;;;23.75;13.93;;;;;;;6.82;84.03;94358.69;4178007;28;20128;-68
2021/01/04 07:05:12;;;;;;;17.52;12.57;;;;;;;6.77;84.28;94363.50;4182008;28;20057;-71
2021/01/04 07:07:44;;;;;;;25.25;15.90;;;;;;;6.85;84.00;94366.19;4184795;28;20121;-70
2021/01/04 07:09:49;;;;;;;20.30;13.65;;;;;;;6.97;83.59;94367.66;4193402;28;20048;-68
2021/01/04 07:11:59;;;;;;;17.13;13.38;;;;;;;7.04;83.42;94367.06;4192541;28;20053;-70
2021/01/04 07:14:15;;;;;;;18.33;12.40;;;;;;;7.09;83.08;94357.03;4195181;28;20606;-70
2021/01/04 07:16:16;;;;;;;18.77;11.93;;;;;;;7.05;83.14;94358.28;4192906;28;20272;-69
2021/01/04 07:18:36;;;;;;;17.30;11.70;;;;;;;7.06;82.89;94352.13;4195598;28;20044;-69
2021/01/04 07:20:58;;;;;;;17.27;12.45;;;;;;;7.15;82.47;94346.03;4188028;28;20048;-69
2021/01/04 07:23:12;;;;;;;17.15;11.90;;;;;;;7.22;82.35;94335.84;4182116;28;20048;-71
2021/01/04 07:25:13;;;;;;;;;;;;;;;7.29;82.37;94344.69;4193945;28;20056;-69
2021/01/04 07:27:25;;;;;;;16.15;11.05;;;;;;;7.36;81.86;94340.53;4209663;28;19931;-70
2021/01/04 07:29:51;;;;;;;15.63;10.82;;;;;;;7.33;81.63;94336.44;4193533;28;20049;-68
2021/01/04 07:32:17;;;;;;;14.10;10.55;;;;;;;7.41;81.35;94333.09;4190964;28;20206;-70
2021/01/04 07:34:45;;;;;;;16.92;11.00;;;;;;;7.45;81.70;94325.81;4193809;28;20501;-74
2021/01/04 07:37:38;;;;;;;14.75;10.80;;;;;;;7.51;81.15;94331.25;4191208;28;20068;-74
2021/01/04 07:40:04;;;;;;;17.98;10.93;;;;;;;7.63;80.72;94329.22;4194159;28;20071;-72
2021/01/04 07:42:47;;;;;;;14.38;10.48;;;;;;;7.67;80.41;94322.72;4192264;28;20045;-69
2021/01/04 07:44:59;;;;;;;13.48;10.07;;;;;;;7.59;81.15;94317.44;4180283;28;20048;-70
2021/01/04 07:47:27;;;;;;;15.40;9.85;;;;;;;7.58;80.68;94315.81;4193121;28;20443;-72
2021/01/04 07:49:28;;;;;;;15.80;9.88;;;;;;;7.49;81.32;94311.50;4194060;28;20617;-70
2021/01/04 07:51:41;;;;;;;13.18;9.55;;;;;;;7.46;81.06;94306.59;4192152;28;20083;-74
2021/01/04 07:54:01;;;;;;;12.32;8.63;;;;;;;7.26;81.96;94301.53;4194452;28;20529;-70
2021/01/04 07:56:09;;;;;;;14.32;9.30;;;;;;;7.33;82.12;94304.34;4192585;28;20056;-72
2021/01/04 07:59:01;;;;;;;10.73;8.00;;;;;;;7.39;81.51;94301.97;4194035;28;20055;-70
2021/01/04 08:01:33;;;;;;;10.10;7.55;;;;;;;7.35;81.30;94284.16;4145991;28;20066;-69
2021/01/04 08:04:22;;;;;;;10.73;7.85;;;;;;;7.44;80.74;94277.25;4186009;28;20045;-71
2021/01/04 08:06:45;;;;;;;8.60;6.97;;;;;;;7.47;80.77;94264.75;4142697;28;20081;-72
2021/01/04 08:08:58;;;;;;;9.68;6.55;;;;;;;7.52;80.60;94259.06;4122077;28;20225;-71
2021/01/04 08:11:30;;;;;;;11.32;7.07;;;;;;;7.61;80.12;94263.38;4141167;28;20104;-70
2021/01/04 08:13:56;;;;;;;15.45;8.30;;;;;;;7.70;79.92;94261.63;4192309;28;20052;-71
2021/01/04 08:16:01;;;;;;;12.02;6.65;;;;;;;7.71;79.47;94273.72;4192267;28;20118;-71
2021/01/04 08:18:06;;;;;;;8.98;6.35;;;;;;;7.81;79.34;94279.66;4193231;28;20262;-71
2021/01/04 08:20:08;;;;;;;12.13;7.18;;;;;;;7.83;79.87;94275.13;4194243;28;20134;-71
2021/01/04 08:22:27;;;;;;;9.98;7.10;;;;;;;7.87;79.47;94270.41;4175339;28;20163;-71
2021/01/04 08:24:34;;;;;;;11.23;7.43;;;;;;;7.91;79.02;94264.72;4176190;28;20049;-70
2021/01/04 08:27:13;;;;;;;10.25;6.63;;;;;;;8.00;78.76;94252.53;4193989;28;20388;-72
2021/01/04 08:29:35;;;;;;;10.32;6.22;;;;;;;8.02;78.71;94249.78;4130585;28;20054;-82
2021/01/04 08:31:48;;;;;;;13.43;6.93;;;;;;;8.10;78.40;94250.66;4222656;28;20048;-84
2021/01/04 08:33:53;;;;;;;12.00;7.63;;;;;;;8.08;78.31;94260.41;4203861;28;20048;-82
2021/01/04 08:35:55;;;;;;;12.38;6.97;;;;;;;8.07;78.73;94257.97;4199621;28;20380;-83
2021/01/04 08:38:13;;;;;;;10.05;6.93;;;;;;;8.07;78.57;94248.38;4197928;28;20048;-81
2021/01/04 08:40:34;;;;;;;9.93;6.10;;;;;;;7.99;78.46;94240.47;4198217;28;20139;-82
2021/01/04 08:42:35;;;;;;;11.07;6.65;;;;;;;8.02;78.64;94234.13;4182930;28;20126;-82
2021/01/04 08:44:37;;;;;;;8.57;6.05;;;;;;;8.12;78.10;94227.84;4200512;28;20052;-83
2021/01/04 08:46:39;;;;;;;18.88;11.05;;;;;;;8.17;77.74;94228.19;4198792;28;20058;-81
2021/01/04 08:48:41;;;;;;;10.80;5.47;;;;;;;8.14;77.27;94227.69;4200636;28;20045;-82
2021/01/04 08:50:45;;;;;;;9.20;5.65;;;;;;;8.18;76.98;94216.78;4196441;28;20056;-82
2021/01/04 08:52:52;;;;;;;9.27;5.53;;;;;;;8.16;77.05;94210.91;4194856;28;20071;-72
2021/01/04 08:55:00;;;;;;;10.82;5.40;;;;;;;8.19;76.74;94208.00;4180293;28;20246;-69
2021/01/04 08:57:09;;;;;;;8.35;5.32;;;;;;;8.19;76.53;94191.50;4180800;28;20377;-70
2021/01/04 08:59:10;;;;;;;8.40;5.65;;;;;;;8.31;76.46;94189.44;4183289;28;20253;-71
2021/01/04 09:01:12;;;;;;;7.53;4.82;;;;;;;8.35;75.79;94191.56;4190662;28;20491;-69
2021/01/04 09:03:20;;;;;;;7.95;5.28;;;;;;;8.43;75.58;94182.97;4191824;28;20569;-71
2021/01/04 09:05:36;;;;;;;8.00;5.45;;;;;;;8.47;75.39;94183.47;4178575;28;20068;-79
2021/01/04 09:07:51;;;;;;;9.68;5.50;;;;;;;8.46;75.07;94174.03;4192995;28;20339;-81
2021/01/04 09:09:54;;;;;;;8.63;5.60;;;;;;;8.40;75.58;94178.03;4208320;28;20055;-81
2021/01/04 09:12:06;;;;;;;12.55;5.43;;;;;;;8.36;75.89;94172.31;4197833;28;20137;-84
2021/01/04 09:14:14;;;;;;;10.38;5.43;;;;;;;8.44;75.10;94181.19;4205954;28;20117;-84
2021/01/04 09:16:30;;;;;;;7.05;4.78;;;;;;;8.37;74.72;94173.16;4205085;28;20053;-83
2021/01/04 09:18:42;;;;;;;6.60;4.72;;;;;;;8.39;75.66;94184.25;4203169;28;20048;-80
2021/01/04 09:20:53;;;;;;;6.95;4.85;;;;;;;8.44;75.07;94171.56;4219973;28;20114;-81
2021/01/04 09:23:03;;;;;;;10.48;4.95;;;;;;;8.52;74.65;94176.81;4201425;28;20059;-81
2021/01/04 09:25:18;;;;;;;12.48;5.47;;;;;;;8.62;74.75;94174.03;4200836;28;20110;-81
2021/01/04 09:27:30;;;;;;;8.90;5.57;;;;;;;8.65;74.21;94167.69;4194747;28;20049;-80
2021/01/04 09:29:36;;;;;;;9.75;5.35;;;;;;;8.70;74.09;94158.41;4195034;28;20063;-80
2021/01/04 09:31:55;;;;;;;7.35;5.60;;;;;;;8.76;74.17;94156.94;4199895;28;20113;-82
2021/01/04 09:33:56;;;;;;;12.38;6.43;;;;;;;8.72;74.14;94158.25;4197580;28;20098;-79
2021/01/04 09:36:03;;;;;;;7.43;5.80;;;;;;;8.78;73.99;94163.66;4199273;28;20048;-82
2021/01/04 09:38:23;;;;;;;10.52;5.57;;;;;;;8.72;73.76;94166.09;4205155;28;20096;-82
2021/01/04 09:40:26;;;;;;;9.48;5.95;;;;;;;8.74;74.15;94164.13;4206767;28;20082;-81
2021/01/04 09:42:28;;;;;;;9.10;5.63;;;;;;;8.69;73.75;94164.63;4194931;28;20039;-81
2021/01/04 09:44:31;;;;;;;13.48;7.38;;;;;;;8.74;73.92;94169.34;4203072;28;20205;-80
2021/01/04 09:46:44;;;;;;;8.85;5.82;;;;;;;8.71;74.14;94167.03;4193086;28;20052;-81
2021/01/04 09:49:05;;;;;;;10.90;6.20;;;;;;;8.65;73.78;94170.28;4184678;28;20048;-81
2021/01/04 09:51:09;;;;;;;7.78;5.45;;;;;;;8.64;74.55;94176.50;4190165;28;20044;-79
2021/01/04 09:53:35;;;;;;;8.90;6.18;;;;;;;8.64;74.16;94172.09;4202500;28;20039;-83
2021/01/04 09:55:43;;;;;;;9.65;6.47;;;;;;;8.60;74.51;94176.84;4213247;28;20044;-82
2021/01/04 09:57:45;;;;;;;7.10;5.38;;;;;;;8.43;74.82;94167.31;4209280;28;20036;-82
2021/01/04 09:59:47;;;;;;;10.05;6.20;;;;;;;8.37;74.94;94167.94;4210652;28;20052;-81
2021/01/04 10:01:59;;;;;;;9.27;6.38;;;;;;;8.33;75.18;94164.81;4209890;28;20044;-80
2021/01/04 10:04:01;;;;;;;7.90;6.22;;;;;;;8.36;74.74;94163.66;4208762;28;20120;-82
2021/01/04 10:06:07;;;;;;;9.10;5.75;;;;;;;8.43;74.83;94153.44;4208813;28;20045;-80
2021/01/04 10:08:23;;;;;;;10.00;6.22;;;;;;;8.41;74.45;94153.63;4211328;28;20052;-81
2021/01/04 10:10:24;;;;;;;9.30;6.47;;;;;;;8.48;75.07;94144.16;4206558;28;20076;-81
2021/01/04 10:12:27;;;;;;;10.52;7.03;;;;;;;8.48;74.44;94141.56;4212224;28;20053;-83
2021/01/04 10:14:33;;;;;;;9.55;6.60;;;;;;;8.51;74.36;94127.38;4211824;28;20044;-81
2021/01/04 10:16:34;;;;;;;10.80;6.13;;;;;;;8.51;74.10;94136.00;4210856;28;20094;-80
2021/01/04 10:18:53;;;;;;;9.00;6.45;;;;;;;8.52;74.70;94131.63;4205948;28;20041;-81
2021/01/04 10:20:55;;;;;;;9.73;7.03;;;;;;;8.59;75.29;94122.97;4189725;28;20054;-81